sensor_id;sensor_type;location;lat;lon;timestamp;P1;durP1;ratioP1;P2;durP2;ratioP2
76409;SDS011;65238;42.662;23.280;2023-08-01T00:02:04;3.95;;;1.88;;
76409;SDS011;65238;42.662;23.280;2023-08-01T00:04:29;4.30;;;1.77;;
76409;SDS011;65238;42.662;23.280;2023-08-01T00:06:55;3.30;;;1.95;;
76409;SDS011;65238;42.662;23.280;2023-08-01T00:09:20;4.18;;;2.10;;
76409;SDS011;65238;42.662;23.280;2023-08-01T00:11:46;3.33;;;2.08;;
76409;SDS011;65238;42.662;23.280;2023-08-01T00:14:11;5.43;;;2.20;;
76409;SDS011;65238;42.662;23.280;2023-08-01T00:16:36;3.42;;;1.80;;
76409;SDS011;65238;42.662;23.280;2023-08-01T00:19:02;2.60;;;1.85;;
76409;SDS011;65238;42.662;23.280;2023-08-01T00:21:27;2.67;;;1.90;;
76409;SDS011;65238;42.662;23.280;2023-08-01T00:23:53;3.83;;;1.88;;
76409;SDS011;65238;42.662;23.280;2023-08-01T00:26:18;2.65;;;1.98;;
76409;SDS011;65238;42.662;23.280;2023-08-01T00:28:44;2.97;;;1.90;;
76409;SDS011;65238;42.662;23.280;2023-08-01T00:31:09;6.22;;;1.88;;
76409;SDS011;65238;42.662;23.280;2023-08-01T00:33:35;4.38;;;2.20;;
76409;SDS011;65238;42.662;23.280;2023-08-01T00:36:00;3.47;;;2.13;;
76409;SDS011;65238;42.662;23.280;2023-08-01T00:38:26;3.35;;;2.15;;
76409;SDS011;65238;42.662;23.280;2023-08-01T00:40:52;4.60;;;2.10;;
76409;SDS011;65238;42.662;23.280;2023-08-01T00:43:17;2.20;;;1.90;;
76409;SDS011;65238;42.662;23.280;2023-08-01T00:45:43;5.00;;;2.38;;
76409;SDS011;65238;42.662;23.280;2023-08-01T00:48:08;1.80;;;1.52;;
76409;SDS011;65238;42.662;23.280;2023-08-01T00:50:34;2.60;;;1.95;;
76409;SDS011;65238;42.662;23.280;2023-08-01T00:52:59;3.33;;;1.92;;
76409;SDS011;65238;42.662;23.280;2023-08-01T00:55:25;8.10;;;1.92;;
76409;SDS011;65238;42.662;23.280;2023-08-01T00:57:52;3.10;;;1.65;;
76409;SDS011;65238;42.662;23.280;2023-08-01T01:00:18;2.40;;;1.90;;
76409;SDS011;65238;42.662;23.280;2023-08-01T01:02:44;3.60;;;1.65;;
76409;SDS011;65238;42.662;23.280;2023-08-01T01:05:09;3.53;;;2.00;;
76409;SDS011;65238;42.662;23.280;2023-08-01T01:07:35;2.72;;;1.83;;
76409;SDS011;65238;42.662;23.280;2023-08-01T01:10:02;2.45;;;1.70;;
76409;SDS011;65238;42.662;23.280;2023-08-01T01:12:27;2.13;;;1.70;;
76409;SDS011;65238;42.662;23.280;2023-08-01T01:14:53;4.07;;;2.03;;
76409;SDS011;65238;42.662;23.280;2023-08-01T01:17:18;3.83;;;2.10;;
76409;SDS011;65238;42.662;23.280;2023-08-01T01:19:44;3.58;;;1.90;;
76409;SDS011;65238;42.662;23.280;2023-08-01T01:22:09;4.85;;;2.28;;
76409;SDS011;65238;42.662;23.280;2023-08-01T01:24:36;4.50;;;1.77;;
76409;SDS011;65238;42.662;23.280;2023-08-01T01:27:03;5.60;;;1.95;;
76409;SDS011;65238;42.662;23.280;2023-08-01T01:29:30;2.95;;;2.38;;
76409;SDS011;65238;42.662;23.280;2023-08-01T01:31:57;2.80;;;2.15;;
76409;SDS011;65238;42.662;23.280;2023-08-01T01:34:22;2.72;;;2.03;;
76409;SDS011;65238;42.662;23.280;2023-08-01T01:36:48;4.97;;;2.20;;
76409;SDS011;65238;42.662;23.280;2023-08-01T01:39:13;4.38;;;2.13;;
76409;SDS011;65238;42.662;23.280;2023-08-01T01:41:39;3.08;;;1.90;;
76409;SDS011;65238;42.662;23.280;2023-08-01T01:44:04;4.30;;;1.98;;
76409;SDS011;65238;42.662;23.280;2023-08-01T01:46:29;6.47;;;2.20;;
76409;SDS011;65238;42.662;23.280;2023-08-01T01:48:55;2.50;;;2.10;;
76409;SDS011;65238;42.662;23.280;2023-08-01T01:51:22;3.75;;;2.03;;
76409;SDS011;65238;42.662;23.280;2023-08-01T01:53:50;2.45;;;2.00;;
76409;SDS011;65238;42.662;23.280;2023-08-01T01:56:15;4.30;;;2.15;;
76409;SDS011;65238;42.662;23.280;2023-08-01T01:58:40;3.95;;;2.15;;
76409;SDS011;65238;42.662;23.280;2023-08-01T02:01:06;2.67;;;2.00;;
76409;SDS011;65238;42.662;23.280;2023-08-01T02:03:31;2.58;;;2.10;;
76409;SDS011;65238;42.662;23.280;2023-08-01T02:05:57;3.75;;;1.98;;
76409;SDS011;65238;42.662;23.280;2023-08-01T02:08:22;3.13;;;2.20;;
76409;SDS011;65238;42.662;23.280;2023-08-01T02:10:48;3.47;;;1.95;;
76409;SDS011;65238;42.662;23.280;2023-08-01T02:13:14;3.30;;;2.35;;
76409;SDS011;65238;42.662;23.280;2023-08-01T02:15:39;4.00;;;2.10;;
76409;SDS011;65238;42.662;23.280;2023-08-01T02:18:04;3.90;;;1.75;;
76409;SDS011;65238;42.662;23.280;2023-08-01T02:20:30;5.05;;;2.00;;
76409;SDS011;65238;42.662;23.280;2023-08-01T02:22:56;5.25;;;2.10;;
76409;SDS011;65238;42.662;23.280;2023-08-01T02:25:22;4.97;;;1.90;;
76409;SDS011;65238;42.662;23.280;2023-08-01T02:27:47;2.15;;;1.67;;
76409;SDS011;65238;42.662;23.280;2023-08-01T02:30:13;2.25;;;2.05;;
76409;SDS011;65238;42.662;23.280;2023-08-01T02:32:38;2.65;;;1.98;;
76409;SDS011;65238;42.662;23.280;2023-08-01T02:35:04;3.65;;;2.20;;
76409;SDS011;65238;42.662;23.280;2023-08-01T02:37:30;2.83;;;1.95;;
76409;SDS011;65238;42.662;23.280;2023-08-01T02:39:55;3.80;;;1.83;;
76409;SDS011;65238;42.662;23.280;2023-08-01T02:42:21;5.53;;;2.28;;
76409;SDS011;65238;42.662;23.280;2023-08-01T02:44:46;3.00;;;2.30;;
76409;SDS011;65238;42.662;23.280;2023-08-01T02:47:12;6.13;;;2.38;;
76409;SDS011;65238;42.662;23.280;2023-08-01T02:49:37;7.15;;;1.92;;
76409;SDS011;65238;42.662;23.280;2023-08-01T02:52:02;3.40;;;2.22;;
76409;SDS011;65238;42.662;23.280;2023-08-01T02:54:28;3.80;;;1.95;;
76409;SDS011;65238;42.662;23.280;2023-08-01T02:56:53;2.22;;;1.67;;
76409;SDS011;65238;42.662;23.280;2023-08-01T02:59:19;2.03;;;1.83;;
76409;SDS011;65238;42.662;23.280;2023-08-01T03:01:44;2.63;;;1.98;;
76409;SDS011;65238;42.662;23.280;2023-08-01T03:04:10;4.45;;;2.45;;
76409;SDS011;65238;42.662;23.280;2023-08-01T03:06:37;2.60;;;1.80;;
76409;SDS011;65238;42.662;23.280;2023-08-01T03:09:03;7.28;;;2.00;;
76409;SDS011;65238;42.662;23.280;2023-08-01T03:11:32;3.88;;;2.20;;
76409;SDS011;65238;42.662;23.280;2023-08-01T03:13:58;3.78;;;2.22;;
76409;SDS011;65238;42.662;23.280;2023-08-01T03:16:24;4.15;;;3.22;;
76409;SDS011;65238;42.662;23.280;2023-08-01T03:18:49;3.13;;;2.10;;
76409;SDS011;65238;42.662;23.280;2023-08-01T03:21:15;6.95;;;2.30;;
76409;SDS011;65238;42.662;23.280;2023-08-01T03:23:41;3.85;;;2.28;;
76409;SDS011;65238;42.662;23.280;2023-08-01T03:26:06;5.05;;;3.13;;
76409;SDS011;65238;42.662;23.280;2023-08-01T03:28:32;4.38;;;2.33;;
76409;SDS011;65238;42.662;23.280;2023-08-01T03:30:57;3.92;;;2.20;;
76409;SDS011;65238;42.662;23.280;2023-08-01T03:33:23;3.75;;;2.22;;
76409;SDS011;65238;42.662;23.280;2023-08-01T03:35:48;7.72;;;2.88;;
76409;SDS011;65238;42.662;23.280;2023-08-01T03:38:13;2.92;;;2.20;;
76409;SDS011;65238;42.662;23.280;2023-08-01T03:40:39;5.82;;;2.50;;
76409;SDS011;65238;42.662;23.280;2023-08-01T03:43:05;4.68;;;2.33;;
76409;SDS011;65238;42.662;23.280;2023-08-01T03:45:31;6.20;;;2.70;;
76409;SDS011;65238;42.662;23.280;2023-08-01T03:47:57;5.63;;;2.63;;
76409;SDS011;65238;42.662;23.280;2023-08-01T03:50:22;3.60;;;2.50;;
76409;SDS011;65238;42.662;23.280;2023-08-01T03:52:48;4.65;;;2.55;;
76409;SDS011;65238;42.662;23.280;2023-08-01T03:55:13;5.35;;;2.42;;
76409;SDS011;65238;42.662;23.280;2023-08-01T03:57:39;3.33;;;2.28;;
76409;SDS011;65238;42.662;23.280;2023-08-01T04:00:07;3.65;;;2.45;;
76409;SDS011;65238;42.662;23.280;2023-08-01T04:02:39;2.38;;;1.98;;
76409;SDS011;65238;42.662;23.280;2023-08-01T04:05:06;4.70;;;2.50;;
76409;SDS011;65238;42.662;23.280;2023-08-01T04:07:31;3.65;;;2.38;;
76409;SDS011;65238;42.662;23.280;2023-08-01T04:09:57;4.72;;;2.65;;
76409;SDS011;65238;42.662;23.280;2023-08-01T04:12:22;8.05;;;2.65;;
76409;SDS011;65238;42.662;23.280;2023-08-01T04:14:48;5.28;;;2.35;;
76409;SDS011;65238;42.662;23.280;2023-08-01T04:17:13;6.30;;;2.42;;
76409;SDS011;65238;42.662;23.280;2023-08-01T04:19:38;6.07;;;2.35;;
76409;SDS011;65238;42.662;23.280;2023-08-01T04:22:04;3.80;;;2.25;;
76409;SDS011;65238;42.662;23.280;2023-08-01T04:24:29;4.55;;;2.95;;
76409;SDS011;65238;42.662;23.280;2023-08-01T04:26:56;7.10;;;2.60;;
76409;SDS011;65238;42.662;23.280;2023-08-01T04:29:21;5.95;;;2.53;;
76409;SDS011;65238;42.662;23.280;2023-08-01T04:31:47;7.38;;;2.85;;
76409;SDS011;65238;42.662;23.280;2023-08-01T04:34:12;7.30;;;4.07;;
76409;SDS011;65238;42.662;23.280;2023-08-01T04:36:37;10.15;;;4.32;;
76409;SDS011;65238;42.662;23.280;2023-08-01T04:39:03;8.07;;;3.20;;
76409;SDS011;65238;42.662;23.280;2023-08-01T04:41:28;10.32;;;3.40;;
76409;SDS011;65238;42.662;23.280;2023-08-01T04:46:44;6.30;;;4.47;;
76409;SDS011;65238;42.662;23.280;2023-08-01T04:49:09;5.90;;;4.05;;
76409;SDS011;65238;42.662;23.280;2023-08-01T04:51:35;8.05;;;4.88;;
76409;SDS011;65238;42.662;23.280;2023-08-01T04:54:00;10.93;;;6.47;;
76409;SDS011;65238;42.662;23.280;2023-08-01T04:56:25;9.70;;;5.35;;
76409;SDS011;65238;42.662;23.280;2023-08-01T04:58:51;10.02;;;3.47;;
76409;SDS011;65238;42.662;23.280;2023-08-01T05:01:16;5.65;;;3.67;;
76409;SDS011;65238;42.662;23.280;2023-08-01T05:03:42;6.03;;;3.40;;
76409;SDS011;65238;42.662;23.280;2023-08-01T05:06:07;5.15;;;3.03;;
76409;SDS011;65238;42.662;23.280;2023-08-01T05:08:33;4.53;;;2.67;;
76409;SDS011;65238;42.662;23.280;2023-08-01T05:10:58;10.95;;;3.38;;
76409;SDS011;65238;42.662;23.280;2023-08-01T05:13:23;6.70;;;4.22;;
76409;SDS011;65238;42.662;23.280;2023-08-01T05:15:49;9.35;;;6.82;;
76409;SDS011;65238;42.662;23.280;2023-08-01T05:18:18;12.70;;;7.38;;
76409;SDS011;65238;42.662;23.280;2023-08-01T05:20:44;13.30;;;6.40;;
76409;SDS011;65238;42.662;23.280;2023-08-01T05:23:09;16.67;;;7.18;;
76409;SDS011;65238;42.662;23.280;2023-08-01T05:25:41;10.50;;;5.03;;
76409;SDS011;65238;42.662;23.280;2023-08-01T05:28:06;13.60;;;6.85;;
76409;SDS011;65238;42.662;23.280;2023-08-01T05:30:32;7.32;;;4.55;;
76409;SDS011;65238;42.662;23.280;2023-08-01T05:32:58;8.32;;;4.35;;
76409;SDS011;65238;42.662;23.280;2023-08-01T05:35:23;10.32;;;4.15;;
76409;SDS011;65238;42.662;23.280;2023-08-01T05:37:49;9.65;;;4.35;;
76409;SDS011;65238;42.662;23.280;2023-08-01T05:40:14;12.45;;;4.47;;
76409;SDS011;65238;42.662;23.280;2023-08-01T05:42:39;6.53;;;4.25;;
76409;SDS011;65238;42.662;23.280;2023-08-01T05:47:34;7.20;;;3.00;;
76409;SDS011;65238;42.662;23.280;2023-08-01T05:50:00;6.97;;;3.13;;
76409;SDS011;65238;42.662;23.280;2023-08-01T05:52:26;9.55;;;3.75;;
76409;SDS011;65238;42.662;23.280;2023-08-01T05:54:51;9.55;;;3.65;;
76409;SDS011;65238;42.662;23.280;2023-08-01T05:57:17;6.53;;;3.13;;
76409;SDS011;65238;42.662;23.280;2023-08-01T05:59:42;8.93;;;3.10;;
76409;SDS011;65238;42.662;23.280;2023-08-01T06:02:08;5.55;;;2.90;;
76409;SDS011;65238;42.662;23.280;2023-08-01T06:04:33;6.68;;;3.08;;
76409;SDS011;65238;42.662;23.280;2023-08-01T06:06:59;5.88;;;2.72;;
76409;SDS011;65238;42.662;23.280;2023-08-01T06:09:24;3.45;;;2.38;;
76409;SDS011;65238;42.662;23.280;2023-08-01T06:11:50;5.82;;;2.80;;
76409;SDS011;65238;42.662;23.280;2023-08-01T06:14:16;6.90;;;2.55;;
76409;SDS011;65238;42.662;23.280;2023-08-01T06:16:42;4.10;;;2.65;;
76409;SDS011;65238;42.662;23.280;2023-08-01T06:19:08;8.77;;;2.80;;
76409;SDS011;65238;42.662;23.280;2023-08-01T06:21:33;4.90;;;2.25;;
76409;SDS011;65238;42.662;23.280;2023-08-01T06:23:58;4.45;;;2.47;;
76409;SDS011;65238;42.662;23.280;2023-08-01T06:26:24;6.28;;;2.33;;
76409;SDS011;65238;42.662;23.280;2023-08-01T06:28:50;4.78;;;2.10;;
76409;SDS011;65238;42.662;23.280;2023-08-01T06:31:18;4.15;;;2.20;;
76409;SDS011;65238;42.662;23.280;2023-08-01T06:33:43;3.15;;;2.33;;
76409;SDS011;65238;42.662;23.280;2023-08-01T06:36:09;3.42;;;2.25;;
76409;SDS011;65238;42.662;23.280;2023-08-01T06:38:34;4.78;;;2.88;;
76409;SDS011;65238;42.662;23.280;2023-08-01T06:40:59;3.28;;;2.17;;
76409;SDS011;65238;42.662;23.280;2023-08-01T06:43:25;5.60;;;2.55;;
76409;SDS011;65238;42.662;23.280;2023-08-01T06:45:50;3.05;;;2.10;;
76409;SDS011;65238;42.662;23.280;2023-08-01T06:48:16;5.50;;;2.63;;
76409;SDS011;65238;42.662;23.280;2023-08-01T06:50:41;3.85;;;2.30;;
76409;SDS011;65238;42.662;23.280;2023-08-01T06:53:07;3.15;;;2.03;;
76409;SDS011;65238;42.662;23.280;2023-08-01T06:55:33;5.05;;;2.20;;
76409;SDS011;65238;42.662;23.280;2023-08-01T06:57:59;4.25;;;2.25;;
76409;SDS011;65238;42.662;23.280;2023-08-01T07:00:24;3.15;;;2.30;;
76409;SDS011;65238;42.662;23.280;2023-08-01T07:02:49;3.88;;;2.22;;
76409;SDS011;65238;42.662;23.280;2023-08-01T07:05:15;3.35;;;2.40;;
76409;SDS011;65238;42.662;23.280;2023-08-01T07:07:40;4.45;;;2.60;;
76409;SDS011;65238;42.662;23.280;2023-08-01T07:10:06;4.78;;;2.40;;
76409;SDS011;65238;42.662;23.280;2023-08-01T07:12:32;3.47;;;1.73;;
76409;SDS011;65238;42.662;23.280;2023-08-01T07:14:58;6.32;;;2.50;;
76409;SDS011;65238;42.662;23.280;2023-08-01T07:17:23;5.70;;;2.28;;
76409;SDS011;65238;42.662;23.280;2023-08-01T07:19:49;3.10;;;2.40;;
76409;SDS011;65238;42.662;23.280;2023-08-01T07:22:14;3.25;;;2.30;;
76409;SDS011;65238;42.662;23.280;2023-08-01T07:24:40;5.85;;;2.38;;
76409;SDS011;65238;42.662;23.280;2023-08-01T07:27:05;3.95;;;2.30;;
76409;SDS011;65238;42.662;23.280;2023-08-01T07:29:31;4.95;;;2.25;;
76409;SDS011;65238;42.662;23.280;2023-08-01T07:31:56;3.42;;;2.22;;
76409;SDS011;65238;42.662;23.280;2023-08-01T07:34:22;3.40;;;2.45;;
76409;SDS011;65238;42.662;23.280;2023-08-01T07:36:47;7.40;;;2.53;;
76409;SDS011;65238;42.662;23.280;2023-08-01T07:39:14;3.35;;;2.58;;
76409;SDS011;65238;42.662;23.280;2023-08-01T07:41:40;5.25;;;2.40;;
76409;SDS011;65238;42.662;23.280;2023-08-01T07:44:08;6.50;;;2.53;;
76409;SDS011;65238;42.662;23.280;2023-08-01T07:46:34;4.15;;;2.70;;
76409;SDS011;65238;42.662;23.280;2023-08-01T07:49:08;4.65;;;2.05;;
76409;SDS011;65238;42.662;23.280;2023-08-01T07:51:57;9.40;;;2.65;;
76409;SDS011;65238;42.662;23.280;2023-08-01T07:54:23;6.20;;;2.83;;
76409;SDS011;65238;42.662;23.280;2023-08-01T07:56:49;4.57;;;2.58;;
76409;SDS011;65238;42.662;23.280;2023-08-01T07:59:14;4.95;;;2.40;;
76409;SDS011;65238;42.662;23.280;2023-08-01T08:01:40;6.68;;;2.67;;
76409;SDS011;65238;42.662;23.280;2023-08-01T08:04:06;8.15;;;2.65;;
76409;SDS011;65238;42.662;23.280;2023-08-01T08:06:31;3.50;;;2.38;;
76409;SDS011;65238;42.662;23.280;2023-08-01T08:08:57;4.80;;;2.10;;
76409;SDS011;65238;42.662;23.280;2023-08-01T08:11:22;8.65;;;2.38;;
76409;SDS011;65238;42.662;23.280;2023-08-01T08:13:48;2.75;;;2.30;;
76409;SDS011;65238;42.662;23.280;2023-08-01T08:16:14;4.70;;;2.67;;
76409;SDS011;65238;42.662;23.280;2023-08-01T08:18:39;5.75;;;2.60;;
76409;SDS011;65238;42.662;23.280;2023-08-01T08:21:05;8.80;;;2.78;;
76409;SDS011;65238;42.662;23.280;2023-08-01T08:23:33;8.07;;;2.80;;
76409;SDS011;65238;42.662;23.280;2023-08-01T08:25:58;5.15;;;2.65;;
76409;SDS011;65238;42.662;23.280;2023-08-01T08:28:28;6.18;;;2.63;;
76409;SDS011;65238;42.662;23.280;2023-08-01T08:30:57;3.40;;;2.90;;
76409;SDS011;65238;42.662;23.280;2023-08-01T08:33:24;3.80;;;2.47;;
76409;SDS011;65238;42.662;23.280;2023-08-01T08:35:49;5.90;;;3.00;;
76409;SDS011;65238;42.662;23.280;2023-08-01T08:38:16;5.18;;;3.08;;
76409;SDS011;65238;42.662;23.280;2023-08-01T08:40:47;3.85;;;2.85;;
76409;SDS011;65238;42.662;23.280;2023-08-01T08:43:29;6.15;;;2.70;;
76409;SDS011;65238;42.662;23.280;2023-08-01T08:45:56;5.82;;;2.67;;
76409;SDS011;65238;42.662;23.280;2023-08-01T08:48:23;5.85;;;3.05;;
76409;SDS011;65238;42.662;23.280;2023-08-01T08:50:52;4.95;;;2.92;;
76409;SDS011;65238;42.662;23.280;2023-08-01T08:53:18;3.33;;;2.72;;
76409;SDS011;65238;42.662;23.280;2023-08-01T08:55:45;6.90;;;2.85;;
76409;SDS011;65238;42.662;23.280;2023-08-01T08:58:21;3.97;;;2.45;;
76409;SDS011;65238;42.662;23.280;2023-08-01T09:00:47;3.92;;;2.60;;
76409;SDS011;65238;42.662;23.280;2023-08-01T09:03:15;5.75;;;2.53;;
76409;SDS011;65238;42.662;23.280;2023-08-01T09:05:50;3.00;;;2.67;;
76409;SDS011;65238;42.662;23.280;2023-08-01T09:08:18;8.00;;;3.20;;
76409;SDS011;65238;42.662;23.280;2023-08-01T09:10:47;4.25;;;2.78;;
76409;SDS011;65238;42.662;23.280;2023-08-01T09:13:13;4.22;;;2.95;;
76409;SDS011;65238;42.662;23.280;2023-08-01T09:15:39;3.83;;;2.78;;
76409;SDS011;65238;42.662;23.280;2023-08-01T09:18:07;5.78;;;2.90;;
76409;SDS011;65238;42.662;23.280;2023-08-01T09:20:45;5.18;;;3.20;;
76409;SDS011;65238;42.662;23.280;2023-08-01T09:23:12;3.95;;;2.88;;
76409;SDS011;65238;42.662;23.280;2023-08-01T09:25:38;8.30;;;3.03;;
76409;SDS011;65238;42.662;23.280;2023-08-01T09:28:14;3.42;;;2.83;;
76409;SDS011;65238;42.662;23.280;2023-08-01T09:30:50;4.68;;;3.20;;
76409;SDS011;65238;42.662;23.280;2023-08-01T09:33:17;3.92;;;2.75;;
76409;SDS011;65238;42.662;23.280;2023-08-01T09:35:43;6.20;;;2.97;;
76409;SDS011;65238;42.662;23.280;2023-08-01T09:38:11;10.85;;;3.25;;
76409;SDS011;65238;42.662;23.280;2023-08-01T09:40:38;5.05;;;3.10;;
76409;SDS011;65238;42.662;23.280;2023-08-01T09:43:04;4.00;;;3.25;;
76409;SDS011;65238;42.662;23.280;2023-08-01T09:45:30;7.75;;;2.97;;
76409;SDS011;65238;42.662;23.280;2023-08-01T09:47:56;5.65;;;3.80;;
76409;SDS011;65238;42.662;23.280;2023-08-01T09:50:22;6.63;;;3.08;;
76409;SDS011;65238;42.662;23.280;2023-08-01T09:52:49;6.15;;;3.38;;
76409;SDS011;65238;42.662;23.280;2023-08-01T09:55:26;6.38;;;3.03;;
76409;SDS011;65238;42.662;23.280;2023-08-01T09:57:56;5.05;;;3.50;;
76409;SDS011;65238;42.662;23.280;2023-08-01T10:00:24;4.47;;;3.20;;
76409;SDS011;65238;42.662;23.280;2023-08-01T10:02:50;4.95;;;3.15;;
76409;SDS011;65238;42.662;23.280;2023-08-01T10:05:18;8.65;;;3.45;;
76409;SDS011;65238;42.662;23.280;2023-08-01T10:07:44;5.07;;;2.88;;
76409;SDS011;65238;42.662;23.280;2023-08-01T10:10:09;4.10;;;3.10;;
76409;SDS011;65238;42.662;23.280;2023-08-01T10:12:35;5.07;;;3.65;;
76409;SDS011;65238;42.662;23.280;2023-08-01T10:15:01;6.40;;;3.03;;
76409;SDS011;65238;42.662;23.280;2023-08-01T10:17:28;6.00;;;3.47;;
76409;SDS011;65238;42.662;23.280;2023-08-01T10:19:55;6.90;;;3.10;;
76409;SDS011;65238;42.662;23.280;2023-08-01T10:22:21;5.05;;;3.28;;
76409;SDS011;65238;42.662;23.280;2023-08-01T10:24:48;4.95;;;3.00;;
76409;SDS011;65238;42.662;23.280;2023-08-01T10:27:14;7.80;;;3.38;;
76409;SDS011;65238;42.662;23.280;2023-08-01T10:29:43;7.90;;;3.90;;
76409;SDS011;65238;42.662;23.280;2023-08-01T10:32:09;6.97;;;3.50;;
76409;SDS011;65238;42.662;23.280;2023-08-01T10:34:35;8.73;;;3.83;;
76409;SDS011;65238;42.662;23.280;2023-08-01T10:37:00;7.75;;;3.45;;
76409;SDS011;65238;42.662;23.280;2023-08-01T10:39:27;5.75;;;3.45;;
76409;SDS011;65238;42.662;23.280;2023-08-01T10:41:58;4.10;;;3.22;;
76409;SDS011;65238;42.662;23.280;2023-08-01T10:44:29;8.45;;;3.65;;
76409;SDS011;65238;42.662;23.280;2023-08-01T10:52:04;5.25;;;3.90;;
76409;SDS011;65238;42.662;23.280;2023-08-01T10:54:55;13.18;;;3.17;;
76409;SDS011;65238;42.662;23.280;2023-08-01T10:57:22;5.90;;;3.53;;
76409;SDS011;65238;42.662;23.280;2023-08-01T10:59:48;7.80;;;3.22;;
76409;SDS011;65238;42.662;23.280;2023-08-01T11:02:19;6.70;;;3.53;;
76409;SDS011;65238;42.662;23.280;2023-08-01T11:04:54;6.35;;;2.80;;
76409;SDS011;65238;42.662;23.280;2023-08-01T11:07:32;3.22;;;2.65;;
76409;SDS011;65238;42.662;23.280;2023-08-01T11:12:35;2.92;;;2.67;;
76409;SDS011;65238;42.662;23.280;2023-08-01T11:15:01;4.82;;;2.30;;
76409;SDS011;65238;42.662;23.280;2023-08-01T11:17:26;2.85;;;2.10;;
76409;SDS011;65238;42.662;23.280;2023-08-01T11:19:59;2.60;;;2.40;;
76409;SDS011;65238;42.662;23.280;2023-08-01T11:22:25;4.32;;;2.17;;
76409;SDS011;65238;42.662;23.280;2023-08-01T11:24:51;2.60;;;2.20;;
76409;SDS011;65238;42.662;23.280;2023-08-01T11:27:16;3.13;;;2.42;;
76409;SDS011;65238;42.662;23.280;2023-08-01T11:29:41;5.40;;;2.40;;
76409;SDS011;65238;42.662;23.280;2023-08-01T11:32:07;4.13;;;2.40;;
76409;SDS011;65238;42.662;23.280;2023-08-01T11:34:39;4.35;;;2.40;;
76409;SDS011;65238;42.662;23.280;2023-08-01T11:37:10;3.70;;;2.50;;
76409;SDS011;65238;42.662;23.280;2023-08-01T11:39:35;7.65;;;3.10;;
76409;SDS011;65238;42.662;23.280;2023-08-01T11:42:01;10.63;;;3.38;;
76409;SDS011;65238;42.662;23.280;2023-08-01T11:44:28;4.45;;;3.03;;
76409;SDS011;65238;42.662;23.280;2023-08-01T11:46:54;5.50;;;3.42;;
76409;SDS011;65238;42.662;23.280;2023-08-01T11:49:20;5.55;;;3.08;;
76409;SDS011;65238;42.662;23.280;2023-08-01T11:51:46;8.25;;;3.60;;
76409;SDS011;65238;42.662;23.280;2023-08-01T11:54:11;6.97;;;3.53;;
76409;SDS011;65238;42.662;23.280;2023-08-01T11:56:38;4.25;;;3.33;;
76409;SDS011;65238;42.662;23.280;2023-08-01T11:59:12;4.40;;;3.20;;
76409;SDS011;65238;42.662;23.280;2023-08-01T12:01:42;3.92;;;3.08;;
76409;SDS011;65238;42.662;23.280;2023-08-01T12:04:08;4.55;;;2.72;;
76409;SDS011;65238;42.662;23.280;2023-08-01T12:06:34;5.47;;;2.63;;
76409;SDS011;65238;42.662;23.280;2023-08-01T12:09:08;3.55;;;2.25;;
76409;SDS011;65238;42.662;23.280;2023-08-01T12:11:37;4.85;;;2.55;;
76409;SDS011;65238;42.662;23.280;2023-08-01T12:14:03;3.38;;;2.45;;
76409;SDS011;65238;42.662;23.280;2023-08-01T12:19:21;3.00;;;2.65;;
76409;SDS011;65238;42.662;23.280;2023-08-01T12:21:47;2.80;;;2.55;;
76409;SDS011;65238;42.662;23.280;2023-08-01T12:24:23;5.63;;;2.55;;
76409;SDS011;65238;42.662;23.280;2023-08-01T12:26:48;4.95;;;2.28;;
76409;SDS011;65238;42.662;23.280;2023-08-01T12:29:13;2.88;;;2.17;;
76409;SDS011;65238;42.662;23.280;2023-08-01T12:31:39;3.08;;;2.15;;
76409;SDS011;65238;42.662;23.280;2023-08-01T12:34:04;1.77;;;1.60;;
76409;SDS011;65238;42.662;23.280;2023-08-01T12:36:30;2.20;;;1.75;;
76409;SDS011;65238;42.662;23.280;2023-08-01T12:38:55;5.82;;;2.30;;
76409;SDS011;65238;42.662;23.280;2023-08-01T12:41:21;2.42;;;1.90;;
76409;SDS011;65238;42.662;23.280;2023-08-01T12:43:46;4.13;;;1.80;;
76409;SDS011;65238;42.662;23.280;2023-08-01T12:46:11;3.15;;;1.95;;
76409;SDS011;65238;42.662;23.280;2023-08-01T12:48:37;4.78;;;2.03;;
76409;SDS011;65238;42.662;23.280;2023-08-01T12:51:02;2.28;;;2.08;;
76409;SDS011;65238;42.662;23.280;2023-08-01T12:53:31;3.38;;;1.95;;
76409;SDS011;65238;42.662;23.280;2023-08-01T12:55:56;3.20;;;2.25;;
76409;SDS011;65238;42.662;23.280;2023-08-01T12:58:21;2.13;;;1.90;;
76409;SDS011;65238;42.662;23.280;2023-08-01T13:00:47;4.65;;;2.13;;
76409;SDS011;65238;42.662;23.280;2023-08-01T13:03:13;5.38;;;2.20;;
76409;SDS011;65238;42.662;23.280;2023-08-01T13:05:40;2.10;;;1.90;;
76409;SDS011;65238;42.662;23.280;2023-08-01T13:08:06;3.05;;;2.10;;
76409;SDS011;65238;42.662;23.280;2023-08-01T13:10:32;4.35;;;2.10;;
76409;SDS011;65238;42.662;23.280;2023-08-01T13:12:58;6.90;;;3.08;;
76409;SDS011;65238;42.662;23.280;2023-08-01T13:15:24;2.92;;;2.10;;
76409;SDS011;65238;42.662;23.280;2023-08-01T13:17:50;2.55;;;2.35;;
76409;SDS011;65238;42.662;23.280;2023-08-01T13:20:16;1.90;;;1.73;;
76409;SDS011;65238;42.662;23.280;2023-08-01T13:22:42;1.73;;;1.63;;
76409;SDS011;65238;42.662;23.280;2023-08-01T13:25:08;2.50;;;2.28;;
76409;SDS011;65238;42.662;23.280;2023-08-01T13:27:34;2.75;;;1.95;;
76409;SDS011;65238;42.662;23.280;2023-08-01T13:30:00;4.47;;;2.70;;
76409;SDS011;65238;42.662;23.280;2023-08-01T13:32:27;3.65;;;2.58;;
76409;SDS011;65238;42.662;23.280;2023-08-01T13:34:52;5.78;;;2.20;;
76409;SDS011;65238;42.662;23.280;2023-08-01T13:37:18;2.30;;;1.80;;
76409;SDS011;65238;42.662;23.280;2023-08-01T13:39:43;3.55;;;2.53;;
76409;SDS011;65238;42.662;23.280;2023-08-01T13:42:10;5.00;;;2.28;;
76409;SDS011;65238;42.662;23.280;2023-08-01T13:44:36;2.05;;;1.85;;
76409;SDS011;65238;42.662;23.280;2023-08-01T13:47:02;6.72;;;2.40;;
76409;SDS011;65238;42.662;23.280;2023-08-01T13:49:28;4.15;;;2.00;;
76409;SDS011;65238;42.662;23.280;2023-08-01T13:51:54;2.95;;;2.10;;
76409;SDS011;65238;42.662;23.280;2023-08-01T13:54:19;4.63;;;2.33;;
76409;SDS011;65238;42.662;23.280;2023-08-01T13:56:45;2.75;;;2.28;;
76409;SDS011;65238;42.662;23.280;2023-08-01T13:59:10;2.35;;;1.60;;
76409;SDS011;65238;42.662;23.280;2023-08-01T14:01:35;2.00;;;1.80;;
76409;SDS011;65238;42.662;23.280;2023-08-01T14:04:03;3.05;;;2.00;;
76409;SDS011;65238;42.662;23.280;2023-08-01T14:06:28;2.08;;;1.88;;
76409;SDS011;65238;42.662;23.280;2023-08-01T14:08:54;2.50;;;1.77;;
76409;SDS011;65238;42.662;23.280;2023-08-01T14:11:19;3.53;;;2.55;;
76409;SDS011;65238;42.662;23.280;2023-08-01T14:13:45;5.00;;;2.10;;
76409;SDS011;65238;42.662;23.280;2023-08-01T14:16:10;3.97;;;1.90;;
76409;SDS011;65238;42.662;23.280;2023-08-01T14:18:35;2.33;;;2.13;;
76409;SDS011;65238;42.662;23.280;2023-08-01T14:21:01;8.75;;;2.30;;
76409;SDS011;65238;42.662;23.280;2023-08-01T14:23:27;2.17;;;1.95;;
76409;SDS011;65238;42.662;23.280;2023-08-01T14:25:52;2.30;;;1.92;;
76409;SDS011;65238;42.662;23.280;2023-08-01T14:28:18;2.63;;;2.17;;
76409;SDS011;65238;42.662;23.280;2023-08-01T14:30:43;2.80;;;2.30;;
76409;SDS011;65238;42.662;23.280;2023-08-01T14:33:09;5.47;;;2.63;;
76409;SDS011;65238;42.662;23.280;2023-08-01T14:35:35;5.40;;;2.33;;
76409;SDS011;65238;42.662;23.280;2023-08-01T14:38:01;2.65;;;2.20;;
76409;SDS011;65238;42.662;23.280;2023-08-01T14:40:28;6.57;;;2.33;;
76409;SDS011;65238;42.662;23.280;2023-08-01T14:42:53;3.28;;;2.67;;
76409;SDS011;65238;42.662;23.280;2023-08-01T14:45:19;3.05;;;2.70;;